createdAt,value
2023-05-22T00:00:30.068Z,990.60
2023-05-22T00:01:30.051Z,990.62
2023-05-22T00:02:30.106Z,990.64
2023-05-22T00:03:30.132Z,990.65
2023-05-22T00:04:30.149Z,990.66
2023-05-22T00:05:30.007Z,990.66
2023-05-22T00:06:29.974Z,990.71
2023-05-22T00:07:29.991Z,990.64
2023-05-22T00:08:30.084Z,990.64
2023-05-22T00:09:29.941Z,990.66
2023-05-22T00:10:29.924Z,990.66
2023-05-22T00:11:29.908Z,990.60
2023-05-22T00:12:29.914Z,990.57
2023-05-22T00:13:29.887Z,990.57
2023-05-22T00:14:29.914Z,990.56
2023-05-22T00:15:29.866Z,990.58
2023-05-22T00:16:29.879Z,990.55
2023-05-22T00:17:29.919Z,990.60
2023-05-22T00:18:29.825Z,990.60
2023-05-22T00:19:29.898Z,990.59
2023-05-22T00:20:29.785Z,990.56
2023-05-22T00:21:29.803Z,990.55
2023-05-22T00:22:29.833Z,990.57
2023-05-22T00:23:29.748Z,990.53
2023-05-22T00:24:29.735Z,990.56
2023-05-22T00:25:29.728Z,990.50
2023-05-22T00:26:29.725Z,990.50
2023-05-22T00:27:29.702Z,990.48
2023-05-22T00:28:29.674Z,990.50
2023-05-22T00:29:29.669Z,990.50
2023-05-22T00:30:29.645Z,990.54
2023-05-22T00:31:29.666Z,990.55
2023-05-22T00:32:29.666Z,990.54
2023-05-22T00:33:29.632Z,990.50
2023-05-22T00:34:29.625Z,990.45
2023-05-22T00:35:29.624Z,990.51
2023-05-22T00:36:29.641Z,990.46
2023-05-22T00:37:29.577Z,990.45
2023-05-22T00:38:29.582Z,990.45
2023-05-22T00:39:29.566Z,990.46
2023-05-22T00:40:29.567Z,990.41
2023-05-22T00:41:29.509Z,990.43
2023-05-22T00:42:29.587Z,990.39
2023-05-22T00:43:29.491Z,990.43
2023-05-22T00:44:29.461Z,990.46
2023-05-22T00:45:29.481Z,990.42
2023-05-22T00:46:29.461Z,990.45
2023-05-22T00:47:29.451Z,990.48
2023-05-22T00:48:29.418Z,990.45
2023-05-22T00:49:29.426Z,990.44
2023-05-22T00:50:29.408Z,990.44
2023-05-22T00:51:29.369Z,990.45
2023-05-22T00:52:29.377Z,990.44
2023-05-22T00:53:29.352Z,990.43
2023-05-22T00:54:29.363Z,990.45
2023-05-22T00:55:29.323Z,990.42
2023-05-22T00:56:29.296Z,990.41
2023-05-22T00:57:29.328Z,990.41
2023-05-22T00:58:29.279Z,990.40
2023-05-22T00:59:29.269Z,990.40
2023-05-22T01:00:29.253Z,990.40
2023-05-22T01:01:29.296Z,990.38
2023-05-22T01:02:29.350Z,990.35
2023-05-22T01:03:29.299Z,990.36
2023-05-22T01:04:29.305Z,990.35
2023-05-22T01:05:30.058Z,990.37
2023-05-22T01:06:29.221Z,990.34
2023-05-22T01:07:29.152Z,990.35
2023-05-22T01:08:29.175Z,990.36
2023-05-22T01:09:29.128Z,990.30
2023-05-22T01:10:29.124Z,990.27
2023-05-22T01:11:29.122Z,990.21
2023-05-22T01:12:29.095Z,990.26
2023-05-22T01:13:29.096Z,990.24
2023-05-22T01:14:29.055Z,990.26
2023-05-22T01:15:29.037Z,990.23
2023-05-22T01:16:29.114Z,990.21
2023-05-22T01:17:29.091Z,990.21
2023-05-22T01:18:29.027Z,990.20
2023-05-22T01:19:29.078Z,990.19
2023-05-22T01:20:28.993Z,990.18
2023-05-22T01:21:28.963Z,990.18
2023-05-22T01:22:29.010Z,990.23
2023-05-22T01:23:28.925Z,990.24
2023-05-22T01:24:28.983Z,990.22
2023-05-22T01:25:28.917Z,990.25
2023-05-22T01:26:28.908Z,990.21
2023-05-22T01:27:28.980Z,990.22
2023-05-22T01:28:28.957Z,990.22
2023-05-22T01:29:28.857Z,990.22
2023-05-22T01:30:28.864Z,990.18
2023-05-22T01:31:28.986Z,990.15
2023-05-22T01:32:28.919Z,990.19
2023-05-22T01:33:28.905Z,990.16
2023-05-22T01:34:28.788Z,990.14
2023-05-22T01:35:28.792Z,990.12
2023-05-22T01:36:28.832Z,990.12
2023-05-22T01:37:28.753Z,990.09
2023-05-22T01:38:28.757Z,990.13
2023-05-22T01:39:28.724Z,990.10
2023-05-22T01:40:28.705Z,990.13
2023-05-22T01:41:28.724Z,990.16
2023-05-22T01:42:28.700Z,990.11
2023-05-22T01:43:28.681Z,990.14
2023-05-22T01:44:28.664Z,990.14
2023-05-22T01:45:28.718Z,990.11
2023-05-22T01:46:28.709Z,990.13
2023-05-22T01:47:28.666Z,990.13
2023-05-22T01:48:28.614Z,990.16
2023-05-22T01:49:28.591Z,990.18
2023-05-22T01:50:28.618Z,990.14
2023-05-22T01:51:28.563Z,990.17
2023-05-22T01:52:28.579Z,990.13
2023-05-22T01:53:28.550Z,990.15
2023-05-22T01:54:28.545Z,990.19
2023-05-22T01:55:28.545Z,990.15
2023-05-22T01:56:28.501Z,990.16
2023-05-22T01:57:28.483Z,990.16
2023-05-22T01:58:28.472Z,990.13
2023-05-22T01:59:28.490Z,990.16
2023-05-22T02:00:28.489Z,990.14
2023-05-22T02:01:28.457Z,990.19
2023-05-22T02:02:28.570Z,990.13
2023-05-22T02:03:28.580Z,990.12
2023-05-22T02:04:28.433Z,990.13
2023-05-22T02:05:28.517Z,990.14
2023-05-22T02:06:28.375Z,990.14
2023-05-22T02:07:28.354Z,990.09
2023-05-22T02:08:28.343Z,990.11
2023-05-22T02:09:28.361Z,990.20
2023-05-22T02:10:28.317Z,990.17
2023-05-22T02:11:28.293Z,990.19
2023-05-22T02:12:28.289Z,990.15
2023-05-22T02:13:28.323Z,990.13
2023-05-22T02:14:28.293Z,990.11
2023-05-22T02:15:28.282Z,990.10
2023-05-22T02:16:28.234Z,990.11
2023-05-22T02:17:28.272Z,990.09
2023-05-22T02:18:28.267Z,990.08
2023-05-22T02:19:28.234Z,990.05
2023-05-22T02:20:28.180Z,990.05
2023-05-22T02:21:28.232Z,990.05
2023-05-22T02:22:28.160Z,990.02
2023-05-22T02:23:28.178Z,990.04
2023-05-22T02:24:28.135Z,990.04
2023-05-22T02:25:28.120Z,990.04
2023-05-22T02:26:28.101Z,990.03
2023-05-22T02:27:28.111Z,990.00
2023-05-22T02:28:28.113Z,990.05
2023-05-22T02:29:28.055Z,990.01
2023-05-22T02:30:28.041Z,990.00
2023-05-22T02:31:28.089Z,989.99
2023-05-22T02:32:28.086Z,990.00
2023-05-22T02:33:28.012Z,990.00
2023-05-22T02:34:27.994Z,989.97
2023-05-22T02:35:27.971Z,989.96
2023-05-22T02:36:27.975Z,989.94
2023-05-22T02:37:27.986Z,989.99
2023-05-22T02:38:27.942Z,989.96
2023-05-22T02:39:27.925Z,989.91
2023-05-22T02:40:27.913Z,989.90
2023-05-22T02:41:27.941Z,989.88
2023-05-22T02:42:27.923Z,989.89
2023-05-22T02:43:27.880Z,989.94
2023-05-22T02:44:27.886Z,989.87
2023-05-22T02:45:27.795Z,989.89
2023-05-22T02:46:27.918Z,989.94
2023-05-22T02:47:27.838Z,989.93
2023-05-22T02:48:27.800Z,989.93
2023-05-22T02:49:27.744Z,989.91
2023-05-22T02:50:27.721Z,989.86
2023-05-22T02:51:27.755Z,989.87
2023-05-22T02:52:27.705Z,989.86
2023-05-22T02:53:27.699Z,989.88
2023-05-22T02:54:27.749Z,989.83
2023-05-22T02:55:27.689Z,989.85
2023-05-22T02:56:27.678Z,989.85
2023-05-22T02:57:27.645Z,989.81
2023-05-22T02:58:27.771Z,989.84
2023-05-22T02:59:27.601Z,989.89
2023-05-22T03:00:27.597Z,989.87
2023-05-22T03:01:27.710Z,989.82
2023-05-22T03:02:27.635Z,989.86
2023-05-22T03:03:27.661Z,989.85
2023-05-22T03:04:27.543Z,989.87
2023-05-22T03:05:27.522Z,989.84
2023-05-22T03:06:27.542Z,989.80
2023-05-22T03:07:27.500Z,989.79
2023-05-22T03:08:27.494Z,989.80
2023-05-22T03:09:27.505Z,989.80
2023-05-22T03:10:27.496Z,989.80
2023-05-22T03:11:27.449Z,989.81
2023-05-22T03:12:27.431Z,989.80
2023-05-22T03:13:27.435Z,989.79
2023-05-22T03:14:27.427Z,989.79
2023-05-22T03:15:27.390Z,989.82
2023-05-22T03:16:27.399Z,989.81
2023-05-22T03:17:27.406Z,989.80
2023-05-22T03:18:27.837Z,989.77
2023-05-22T03:19:27.459Z,989.78
2023-05-22T03:20:27.383Z,989.79
2023-05-22T03:21:27.319Z,989.78
2023-05-22T03:22:27.299Z,989.82
2023-05-22T03:23:27.341Z,989.76
2023-05-22T03:24:27.271Z,989.81
2023-05-22T03:25:27.286Z,989.82
2023-05-22T03:26:27.253Z,989.82
2023-05-22T03:27:27.230Z,989.77
2023-05-22T03:28:27.234Z,989.83
2023-05-22T03:29:27.230Z,989.79
2023-05-22T03:30:27.276Z,989.80
2023-05-22T03:31:27.240Z,989.85
2023-05-22T03:32:27.403Z,989.81
2023-05-22T03:33:27.263Z,989.83
2023-05-22T03:34:27.283Z,989.86
2023-05-22T03:35:27.126Z,989.85
2023-05-22T03:36:27.130Z,989.82
2023-05-22T03:37:27.142Z,989.89
2023-05-22T03:38:27.081Z,989.83
2023-05-22T03:39:27.103Z,989.83
2023-05-22T03:40:27.087Z,989.81
2023-05-22T03:41:27.043Z,989.84
2023-05-22T03:42:27.064Z,989.83
2023-05-22T03:43:27.058Z,989.82
2023-05-22T03:44:27.128Z,989.81
2023-05-22T03:45:26.995Z,989.82
2023-05-22T03:46:27.094Z,989.83
2023-05-22T03:47:27.052Z,989.81
2023-05-22T03:48:26.951Z,989.84
2023-05-22T03:49:26.944Z,989.77
2023-05-22T03:50:26.932Z,989.75
2023-05-22T03:51:26.909Z,989.81
2023-05-22T03:52:26.936Z,989.77
2023-05-22T03:53:26.912Z,989.77
2023-05-22T03:54:26.904Z,989.72
2023-05-22T03:55:26.864Z,989.74
2023-05-22T03:56:26.893Z,989.72
2023-05-22T03:57:26.879Z,989.69
2023-05-22T03:58:26.824Z,989.67
2023-05-22T03:59:26.811Z,989.70
2023-05-22T04:00:36.000Z,989.68
2023-05-22T04:01:27.835Z,989.69
2023-05-22T04:02:26.835Z,989.71
2023-05-22T04:03:26.915Z,989.71
2023-05-22T04:04:26.737Z,989.72
2023-05-22T04:05:26.822Z,989.74
2023-05-22T04:06:26.742Z,989.70
2023-05-22T04:07:26.702Z,989.71
2023-05-22T04:08:26.700Z,989.71
2023-05-22T04:09:26.674Z,989.71
2023-05-22T04:10:26.704Z,989.71
2023-05-22T04:11:26.678Z,989.77
2023-05-22T04:12:26.644Z,989.74
2023-05-22T04:13:26.664Z,989.76
2023-05-22T04:14:26.643Z,989.76
2023-05-22T04:15:26.618Z,989.75
2023-05-22T04:16:26.682Z,989.76
2023-05-22T04:17:26.621Z,989.79
2023-05-22T04:18:26.558Z,989.77
2023-05-22T04:19:26.655Z,989.74
2023-05-22T04:20:26.584Z,989.75
2023-05-22T04:21:26.559Z,989.75
2023-05-22T04:22:26.506Z,989.77
2023-05-22T04:23:26.637Z,989.78
2023-05-22T04:24:26.599Z,989.81
2023-05-22T04:25:26.494Z,989.78
2023-05-22T04:26:26.470Z,989.80
2023-05-22T04:27:26.442Z,989.76
2023-05-22T04:28:26.426Z,989.79
2023-05-22T04:29:26.444Z,989.76
2023-05-22T04:30:26.411Z,989.76
2023-05-22T04:31:26.556Z,989.79
2023-05-22T04:32:26.426Z,989.78
2023-05-22T04:33:26.395Z,989.82
2023-05-22T04:34:26.388Z,989.83
2023-05-22T04:35:26.346Z,989.80
2023-05-22T04:36:26.428Z,989.83
2023-05-22T04:37:26.395Z,989.82
2023-05-22T04:38:26.428Z,989.83
2023-05-22T04:39:26.485Z,989.84
2023-05-22T04:40:26.325Z,989.85
2023-05-22T04:41:26.269Z,989.87
2023-05-22T04:42:26.329Z,989.85
2023-05-22T04:43:26.300Z,989.84
2023-05-22T04:44:26.218Z,989.84
2023-05-22T04:45:26.276Z,989.86
2023-05-22T04:46:26.272Z,989.85
2023-05-22T04:47:26.233Z,989.79
2023-05-22T04:48:26.211Z,989.82
2023-05-22T04:49:26.197Z,989.84
2023-05-22T04:50:26.183Z,989.82
2023-05-22T04:51:26.207Z,989.82
2023-05-22T04:52:26.191Z,989.84
2023-05-22T04:53:26.145Z,989.87
2023-05-22T04:54:26.086Z,989.90
2023-05-22T04:55:26.089Z,989.85
2023-05-22T04:56:35.431Z,989.87
2023-05-22T04:57:27.090Z,989.85
2023-05-22T04:58:26.026Z,989.90
2023-05-22T04:59:26.015Z,989.84
2023-05-22T05:00:26.005Z,989.87
2023-05-22T05:01:26.034Z,989.81
2023-05-22T05:02:26.161Z,989.82
2023-05-22T05:03:26.015Z,989.86
2023-05-22T05:04:25.945Z,989.83
2023-05-22T05:05:25.937Z,989.83
2023-05-22T05:06:25.973Z,989.86
2023-05-22T05:07:25.933Z,989.85
2023-05-22T05:08:25.897Z,989.81
2023-05-22T05:09:25.887Z,989.82
2023-05-22T05:10:25.864Z,989.78
2023-05-22T05:11:25.916Z,989.75
2023-05-22T05:12:25.883Z,989.71
2023-05-22T05:13:25.864Z,989.73
2023-05-22T05:14:25.822Z,989.74
2023-05-22T05:15:25.853Z,989.73
2023-05-22T05:16:25.885Z,989.73
2023-05-22T05:17:25.838Z,989.72
2023-05-22T05:18:25.764Z,989.71
2023-05-22T05:19:25.792Z,989.74
2023-05-22T05:20:25.782Z,989.76
2023-05-22T05:21:25.750Z,989.73
2023-05-22T05:22:25.700Z,989.77
2023-05-22T05:23:25.707Z,989.77
2023-05-22T05:24:25.669Z,989.78
2023-05-22T05:25:25.688Z,989.72
2023-05-22T05:26:25.670Z,989.75
2023-05-22T05:27:25.644Z,989.74
2023-05-22T05:28:25.621Z,989.76
2023-05-22T05:29:25.615Z,989.74
2023-05-22T05:30:25.623Z,989.72
2023-05-22T05:31:25.610Z,989.73
2023-05-22T05:32:25.666Z,989.75
2023-05-22T05:33:25.562Z,989.68
2023-05-22T05:34:25.591Z,989.71
2023-05-22T05:35:25.570Z,989.74
2023-05-22T05:36:25.519Z,989.71
2023-05-22T05:37:25.502Z,989.69
2023-05-22T05:38:25.491Z,989.67
2023-05-22T05:39:25.512Z,989.67
2023-05-22T05:40:25.473Z,989.65
2023-05-22T05:41:25.453Z,989.63
2023-05-22T05:42:25.442Z,989.67
2023-05-22T05:43:25.457Z,989.64
2023-05-22T05:44:25.441Z,989.60
2023-05-22T05:45:25.415Z,989.60
2023-05-22T05:46:25.452Z,989.61
2023-05-22T05:47:25.401Z,989.62
2023-05-22T05:48:25.400Z,989.67
2023-05-22T05:49:25.375Z,989.67
2023-05-22T05:50:25.326Z,989.65
2023-05-22T05:51:25.321Z,989.66
2023-05-22T05:52:25.312Z,989.68
2023-05-22T05:53:25.320Z,989.62
2023-05-22T05:54:25.278Z,989.68
2023-05-22T05:55:25.267Z,989.69
2023-05-22T05:56:25.253Z,989.65
2023-05-22T05:57:25.237Z,989.67
2023-05-22T05:58:25.252Z,989.70
2023-05-22T05:59:25.218Z,989.79
2023-05-22T06:00:25.973Z,989.71
2023-05-22T06:01:25.219Z,989.71
2023-05-22T06:02:25.250Z,989.71
2023-05-22T06:03:25.336Z,989.69
2023-05-22T06:04:25.146Z,989.73
2023-05-22T06:05:25.160Z,989.71
2023-05-22T06:06:25.116Z,989.69
2023-05-22T06:07:25.135Z,989.66
2023-05-22T06:08:25.095Z,989.66
2023-05-22T06:09:25.100Z,989.66
2023-05-22T06:10:25.079Z,989.68
2023-05-22T06:11:25.084Z,989.70
2023-05-22T06:12:25.057Z,989.69
2023-05-22T06:13:25.033Z,989.71
2023-05-22T06:14:25.124Z,989.74
2023-05-22T06:15:25.000Z,989.76
2023-05-22T06:16:25.035Z,989.74
2023-05-22T06:17:25.019Z,989.70
2023-05-22T06:18:24.963Z,989.72
2023-05-22T06:19:25.039Z,989.70
2023-05-22T06:20:24.934Z,989.73
2023-05-22T06:21:24.951Z,989.71
2023-05-22T06:22:24.922Z,989.77
2023-05-22T06:23:24.899Z,989.80
2023-05-22T06:24:24.878Z,989.78
2023-05-22T06:25:24.879Z,989.80
2023-05-22T06:26:24.887Z,989.78
2023-05-22T06:27:24.839Z,989.74
2023-05-22T06:28:24.828Z,989.74
2023-05-22T06:29:24.828Z,989.77
2023-05-22T06:30:38.900Z,989.76
2023-05-22T06:31:25.845Z,989.73
2023-05-22T06:32:24.851Z,989.74
2023-05-22T06:33:24.855Z,989.73
2023-05-22T06:34:24.821Z,989.78
2023-05-22T06:35:24.770Z,989.69
2023-05-22T06:36:24.750Z,989.70
2023-05-22T06:37:24.718Z,989.71
2023-05-22T06:38:24.703Z,989.74
2023-05-22T06:39:24.692Z,989.72
2023-05-22T06:40:24.717Z,989.73
2023-05-22T06:41:24.678Z,989.70
2023-05-22T06:42:24.644Z,989.71
2023-05-22T06:43:24.683Z,989.71
2023-05-22T06:44:24.693Z,989.72
2023-05-22T06:45:24.668Z,989.73
2023-05-22T06:46:26.171Z,989.70
2023-05-22T06:47:24.633Z,989.68
2023-05-22T06:48:24.613Z,989.69
2023-05-22T06:49:24.613Z,989.69
2023-05-22T06:50:24.560Z,989.69
2023-05-22T06:51:24.590Z,989.69
2023-05-22T06:52:24.509Z,989.67
2023-05-22T06:53:24.519Z,989.70
2023-05-22T06:54:24.539Z,989.67
2023-05-22T06:55:24.488Z,989.68
2023-05-22T06:56:24.468Z,989.70
2023-05-22T06:57:24.465Z,989.71
2023-05-22T06:58:24.461Z,989.71
2023-05-22T06:59:25.243Z,989.69
2023-05-22T07:00:24.499Z,989.71
2023-05-22T07:01:24.442Z,989.69
2023-05-22T07:02:24.512Z,989.68
2023-05-22T07:03:24.400Z,989.70
2023-05-22T07:04:24.395Z,989.74
2023-05-22T07:05:24.370Z,989.75
2023-05-22T07:06:24.325Z,989.74
2023-05-22T07:07:24.323Z,989.74
2023-05-22T07:08:24.326Z,989.74
2023-05-22T07:09:24.317Z,989.73
2023-05-22T07:10:24.282Z,989.74
2023-05-22T07:11:24.268Z,989.71
2023-05-22T07:12:24.273Z,989.74
2023-05-22T07:13:24.273Z,989.73
2023-05-22T07:14:24.234Z,989.73
2023-05-22T07:15:24.225Z,989.73
2023-05-22T07:16:24.252Z,989.76
2023-05-22T07:17:24.366Z,989.72
2023-05-22T07:18:24.177Z,989.74
2023-05-22T07:19:24.215Z,989.77
2023-05-22T07:20:24.162Z,989.77
2023-05-22T07:21:24.140Z,989.74
2023-05-22T07:22:24.155Z,989.76
2023-05-22T07:23:26.095Z,989.73
2023-05-22T07:24:24.096Z,989.75
2023-05-22T07:25:24.087Z,989.75
2023-05-22T07:26:24.095Z,989.73
2023-05-22T07:27:24.115Z,989.73
2023-05-22T07:28:24.047Z,989.72
2023-05-22T07:29:24.026Z,989.72
2023-05-22T07:30:24.008Z,989.77
2023-05-22T07:31:24.108Z,989.77
2023-05-22T07:32:24.077Z,989.72
2023-05-22T07:33:23.969Z,989.72
2023-05-22T07:34:23.957Z,989.71
2023-05-22T07:35:23.957Z,989.69
2023-05-22T07:36:23.961Z,989.71
2023-05-22T07:37:23.940Z,989.73
2023-05-22T07:38:23.917Z,989.71
2023-05-22T07:39:23.902Z,989.72
2023-05-22T07:40:24.499Z,989.69
2023-05-22T07:41:23.888Z,989.68
2023-05-22T07:42:23.836Z,989.68
2023-05-22T07:43:23.829Z,989.70
2023-05-22T07:44:23.820Z,989.68
2023-05-22T07:45:23.838Z,989.67
2023-05-22T07:46:23.841Z,989.64
2023-05-22T07:47:23.821Z,989.60
2023-05-22T07:48:23.792Z,989.63
2023-05-22T07:49:23.798Z,989.64
2023-05-22T07:50:23.777Z,989.59
2023-05-22T07:51:23.729Z,989.62
2023-05-22T07:52:23.731Z,989.58
2023-05-22T07:53:23.708Z,989.54
2023-05-22T07:54:23.715Z,989.53
2023-05-22T07:55:23.694Z,989.53
2023-05-22T07:56:23.743Z,989.53
2023-05-22T07:57:23.653Z,989.57
2023-05-22T07:58:23.642Z,989.56
2023-05-22T07:59:23.664Z,989.58
2023-05-22T08:00:23.597Z,989.55
2023-05-22T08:01:23.608Z,989.59
2023-05-22T08:02:23.681Z,989.56
2023-05-22T08:03:24.402Z,989.53
2023-05-22T08:04:23.613Z,989.57
2023-05-22T08:05:23.594Z,989.56
2023-05-22T08:06:24.332Z,989.59
2023-05-22T08:07:23.551Z,989.59
2023-05-22T08:08:23.531Z,989.55
2023-05-22T08:09:23.523Z,989.55
2023-05-22T08:10:23.470Z,989.53
2023-05-22T08:11:23.459Z,989.55
2023-05-22T08:12:24.233Z,989.52
2023-05-22T08:13:23.461Z,989.54
2023-05-22T08:14:23.409Z,989.57
2023-05-22T08:15:23.409Z,989.55
2023-05-22T08:16:23.442Z,989.56
2023-05-22T08:17:23.428Z,989.58
2023-05-22T08:18:23.404Z,989.56
2023-05-22T08:19:23.430Z,989.56
2023-05-22T08:20:23.374Z,989.61
2023-05-22T08:21:23.339Z,989.57
2023-05-22T08:22:23.343Z,989.58
2023-05-22T08:23:23.345Z,989.62
2023-05-22T08:24:23.286Z,989.60
2023-05-22T08:25:23.284Z,989.56
2023-05-22T08:26:23.257Z,989.58
2023-05-22T08:27:23.271Z,989.60
2023-05-22T08:28:23.261Z,989.58
2023-05-22T08:29:23.247Z,989.55
2023-05-22T08:30:23.222Z,989.56
2023-05-22T08:31:23.262Z,989.55
2023-05-22T08:32:23.252Z,989.53
2023-05-22T08:33:23.178Z,989.52
2023-05-22T08:34:23.152Z,989.54
2023-05-22T08:35:23.144Z,989.55
2023-05-22T08:36:23.162Z,989.53
2023-05-22T08:37:23.144Z,989.51
2023-05-22T08:38:23.105Z,989.50
2023-05-22T08:39:23.103Z,989.46
2023-05-22T08:40:23.084Z,989.44
2023-05-22T08:41:23.135Z,989.46
2023-05-22T08:42:23.043Z,989.44
2023-05-22T08:43:23.035Z,989.41
2023-05-22T08:44:23.020Z,989.45
2023-05-22T08:45:23.122Z,989.43
2023-05-22T08:46:23.060Z,989.42
2023-05-22T08:47:22.991Z,989.42
2023-05-22T08:48:22.976Z,989.44
2023-05-22T08:49:23.953Z,989.43
2023-05-22T08:50:22.984Z,989.42
2023-05-22T08:51:22.946Z,989.39
2023-05-22T08:52:22.907Z,989.38
2023-05-22T08:53:22.894Z,989.35
2023-05-22T08:54:22.893Z,989.40
2023-05-22T08:55:22.925Z,989.42
2023-05-22T08:56:22.861Z,989.38
2023-05-22T08:57:22.838Z,989.36
2023-05-22T08:58:22.855Z,989.35
2023-05-22T08:59:22.868Z,989.34
2023-05-22T09:00:22.847Z,989.28
2023-05-22T09:01:22.795Z,989.30
2023-05-22T09:02:22.828Z,989.22
2023-05-22T09:03:22.823Z,989.28
2023-05-22T09:04:22.796Z,989.23
2023-05-22T09:05:22.734Z,989.25
2023-05-22T09:06:22.729Z,989.23
2023-05-22T09:07:22.712Z,989.23
2023-05-22T09:08:22.766Z,989.25
2023-05-22T09:09:22.709Z,989.25
2023-05-22T09:10:22.707Z,989.20
2023-05-22T09:11:22.665Z,989.20
2023-05-22T09:12:22.667Z,989.18
2023-05-22T09:13:22.664Z,989.19
2023-05-22T09:14:22.657Z,989.14
2023-05-22T09:15:22.626Z,989.19
2023-05-22T09:16:22.644Z,989.17
2023-05-22T09:17:22.724Z,989.17
2023-05-22T09:18:22.612Z,989.18
2023-05-22T09:19:22.611Z,989.14
2023-05-22T09:20:22.623Z,989.18
2023-05-22T09:22:24.475Z,989.21
2023-05-22T09:23:22.529Z,989.22
2023-05-22T09:24:22.492Z,989.26
2023-05-22T09:25:22.478Z,989.19
2023-05-22T09:26:22.485Z,989.22
2023-05-22T09:27:22.471Z,989.20
2023-05-22T09:28:22.493Z,989.24
2023-05-22T09:29:22.449Z,989.21
2023-05-22T09:30:22.437Z,989.21
2023-05-22T09:31:22.431Z,989.20
2023-05-22T09:32:22.445Z,989.18
2023-05-22T09:33:22.404Z,989.21
2023-05-22T09:34:22.360Z,989.13
2023-05-22T09:35:22.364Z,989.17
2023-05-22T09:36:22.332Z,989.13
2023-05-22T09:37:22.356Z,989.07
2023-05-22T09:38:22.343Z,989.08
2023-05-22T09:39:22.298Z,989.14
2023-05-22T09:40:22.386Z,989.10
2023-05-22T09:41:22.310Z,989.10
2023-05-22T09:42:22.264Z,989.10
2023-05-22T09:43:22.246Z,989.09
2023-05-22T09:44:22.266Z,989.12
2023-05-22T09:45:22.252Z,989.13
2023-05-22T09:46:22.377Z,989.10
2023-05-22T09:47:22.265Z,989.09
2023-05-22T09:48:22.190Z,989.09
2023-05-22T09:49:22.168Z,989.06
2023-05-22T09:50:22.180Z,989.13
2023-05-22T09:51:22.164Z,989.05
2023-05-22T09:52:22.139Z,989.08
2023-05-22T09:53:22.118Z,989.14
2023-05-22T09:54:22.102Z,989.12
2023-05-22T09:55:22.118Z,989.07
2023-05-22T09:56:34.777Z,989.13
2023-05-22T09:57:23.063Z,989.08
2023-05-22T09:58:22.050Z,989.19
2023-05-22T09:59:22.076Z,989.15
2023-05-22T10:00:22.066Z,989.14
2023-05-22T10:01:22.057Z,989.17
2023-05-22T10:02:22.029Z,989.19
2023-05-22T10:03:21.997Z,989.20
2023-05-22T10:04:22.131Z,989.17
2023-05-22T10:05:22.256Z,989.16
2023-05-22T10:06:21.964Z,989.17
2023-05-22T10:07:21.958Z,989.22
2023-05-22T10:08:22.034Z,989.19
2023-05-22T10:09:21.957Z,989.16
2023-05-22T10:10:22.001Z,989.17
2023-05-22T10:11:21.882Z,989.18
2023-05-22T10:12:21.889Z,989.24
2023-05-22T10:13:21.860Z,989.20
2023-05-22T10:14:21.876Z,989.18
2023-05-22T10:15:21.839Z,989.14
2023-05-22T10:16:21.848Z,989.13
2023-05-22T10:17:21.831Z,989.12
2023-05-22T10:18:21.819Z,989.14
2023-05-22T10:19:21.847Z,989.17
2023-05-22T10:20:21.797Z,989.05
2023-05-22T10:21:21.761Z,989.06
2023-05-22T10:22:21.751Z,989.01
2023-05-22T10:23:21.769Z,989.04
2023-05-22T10:24:21.769Z,989.05
2023-05-22T10:25:22.523Z,989.00
2023-05-22T10:26:21.708Z,988.95
2023-05-22T10:27:21.698Z,988.99
2023-05-22T10:28:21.702Z,988.97
2023-05-22T10:29:21.662Z,988.93
2023-05-22T10:30:21.770Z,988.92
2023-05-22T10:31:21.644Z,988.91
2023-05-22T10:32:21.692Z,988.92
2023-05-22T10:33:21.729Z,988.91
2023-05-22T10:34:21.601Z,988.86
2023-05-22T10:35:21.575Z,988.85
2023-05-22T10:36:21.580Z,988.84
2023-05-22T10:37:21.597Z,988.80
2023-05-22T10:38:21.560Z,988.83
2023-05-22T10:39:21.526Z,988.81
2023-05-22T10:40:21.646Z,988.78
2023-05-22T10:41:21.504Z,988.75
2023-05-22T10:42:21.525Z,988.80
2023-05-22T10:43:21.476Z,988.75
2023-05-22T10:44:21.464Z,988.78
2023-05-22T10:45:21.448Z,988.79
2023-05-22T10:46:21.491Z,988.75
2023-05-22T10:47:21.519Z,988.75
2023-05-22T10:48:21.437Z,988.81
2023-05-22T10:49:21.402Z,988.82
2023-05-22T10:50:21.397Z,988.84
2023-05-22T10:51:22.237Z,988.87
2023-05-22T10:52:22.166Z,988.89
2023-05-22T10:53:21.348Z,988.87
2023-05-22T10:54:21.341Z,988.87
2023-05-22T10:55:21.323Z,988.85
2023-05-22T10:56:24.459Z,988.89
2023-05-22T10:57:21.300Z,988.84
2023-05-22T10:58:21.303Z,988.81
2023-05-22T10:59:21.279Z,988.83
2023-05-22T11:00:21.338Z,988.89
2023-05-22T11:01:21.369Z,988.89
2023-05-22T11:02:22.461Z,988.89
2023-05-22T11:03:21.290Z,988.87
2023-05-22T11:04:21.236Z,988.86
2023-05-22T11:05:21.223Z,988.85
2023-05-22T11:06:21.204Z,988.87
2023-05-22T11:07:21.165Z,988.89
2023-05-22T11:08:21.164Z,988.87
2023-05-22T11:09:21.194Z,988.92
2023-05-22T11:10:21.170Z,988.85
2023-05-22T11:11:21.143Z,988.85
2023-05-22T11:12:21.126Z,988.88
2023-05-22T11:13:21.104Z,988.87
2023-05-22T11:14:21.120Z,988.90
2023-05-22T11:15:21.084Z,988.87
2023-05-22T11:16:21.062Z,988.85
2023-05-22T11:17:21.034Z,988.85
2023-05-22T11:18:21.070Z,988.84
2023-05-22T11:19:23.796Z,988.86
2023-05-22T11:20:21.089Z,988.82
2023-05-22T11:21:20.993Z,988.81
2023-05-22T11:22:20.983Z,988.82
2023-05-22T11:23:20.963Z,988.81
2023-05-22T11:24:21.931Z,988.83
2023-05-22T11:25:20.938Z,988.84
2023-05-22T11:26:20.958Z,988.82
2023-05-22T11:27:20.912Z,988.79
2023-05-22T11:28:20.944Z,988.75
2023-05-22T11:29:20.916Z,988.77
2023-05-22T11:30:20.891Z,988.75
2023-05-22T11:31:20.900Z,988.76
2023-05-22T11:32:20.858Z,988.76
2023-05-22T11:33:20.916Z,988.78
2023-05-22T11:34:20.866Z,988.77
2023-05-22T11:35:20.802Z,988.68
2023-05-22T11:36:20.808Z,988.72
2023-05-22T11:37:20.794Z,988.64
2023-05-22T11:38:20.805Z,988.63
2023-05-22T11:39:20.768Z,988.61
2023-05-22T11:40:20.759Z,988.63
2023-05-22T11:41:20.740Z,988.54
2023-05-22T11:42:20.761Z,988.53
2023-05-22T11:43:20.722Z,988.52
2023-05-22T11:44:20.697Z,988.53
2023-05-22T11:45:20.674Z,988.52
2023-05-22T11:46:20.725Z,988.51
2023-05-22T11:47:20.688Z,988.47
2023-05-22T11:48:20.661Z,988.44
2023-05-22T11:49:20.647Z,988.44
2023-05-22T11:50:33.433Z,988.42
2023-05-22T11:51:21.625Z,988.41
2023-05-22T11:52:20.629Z,988.45
2023-05-22T11:53:20.592Z,988.47
2023-05-22T11:54:20.568Z,988.38
2023-05-22T11:55:20.561Z,988.41
2023-05-22T11:56:20.570Z,988.41
2023-05-22T11:57:20.558Z,988.41
2023-05-22T11:58:20.542Z,988.37
2023-05-22T11:59:20.492Z,988.37
2023-05-22T12:00:20.510Z,988.35
2023-05-22T12:01:20.517Z,988.30
2023-05-22T12:02:20.482Z,988.25
2023-05-22T12:03:20.539Z,988.25
2023-05-22T12:04:20.526Z,988.25
2023-05-22T12:05:20.431Z,988.22
2023-05-22T12:06:20.486Z,988.25
2023-05-22T12:07:20.383Z,988.24
2023-05-22T12:08:20.399Z,988.21
2023-05-22T12:09:20.380Z,988.18
2023-05-22T12:10:20.393Z,988.18
2023-05-22T12:11:20.375Z,988.22
2023-05-22T12:12:22.361Z,988.18
2023-05-22T12:13:20.317Z,988.19
2023-05-22T12:14:20.316Z,988.21
2023-05-22T12:15:20.344Z,988.21
2023-05-22T12:16:20.310Z,988.21
2023-05-22T12:17:20.260Z,988.21
2023-05-22T12:18:20.258Z,988.23
2023-05-22T12:19:20.289Z,988.24
2023-05-22T12:20:20.266Z,988.21
2023-05-22T12:21:20.233Z,988.22
2023-05-22T12:22:22.491Z,988.23
2023-05-22T12:23:20.195Z,988.22
2023-05-22T12:24:20.210Z,988.24
2023-05-22T12:25:20.376Z,988.23
2023-05-22T12:26:20.154Z,988.20
2023-05-22T12:27:20.148Z,988.20
2023-05-22T12:28:20.128Z,988.23
2023-05-22T12:29:20.144Z,988.22